createdAt,value
2024-03-05T00:00:27.039Z,100981.88
2024-03-05T00:02:53.637Z,100973.75
2024-03-05T00:05:20.235Z,100970.09
2024-03-05T00:07:47.018Z,100972.56
2024-03-05T00:10:14.604Z,100974.28
2024-03-05T00:12:41.528Z,100968.19
2024-03-05T00:15:08.622Z,100975.34
2024-03-05T00:17:35.212Z,100982.84
2024-03-05T00:20:02.202Z,100987.66
2024-03-05T00:22:29.382Z,100980.06
2024-03-05T00:24:56.281Z,100978.78
2024-03-05T00:27:22.924Z,100975.44
2024-03-05T00:29:49.615Z,100980.16
2024-03-05T00:32:17.122Z,100981.22
2024-03-05T00:34:43.764Z,100983.34
2024-03-05T00:37:10.409Z,100987.19
2024-03-05T00:39:37.047Z,100975.78
2024-03-05T00:42:04.831Z,100968.94
2024-03-05T00:44:31.464Z,100969.22
2024-03-05T00:46:58.315Z,100969.44
2024-03-05T00:49:25.162Z,100968.59
2024-03-05T00:51:51.802Z,100962.38
2024-03-05T00:54:18.443Z,100964.09
2024-03-05T00:56:45.026Z,100970.28
2024-03-05T00:59:12.544Z,100961.53
2024-03-05T01:01:40.636Z,100959.84
2024-03-05T01:04:09.131Z,100969.88
2024-03-05T01:06:35.985Z,100967.63
2024-03-05T01:09:02.729Z,100969.63
2024-03-05T01:11:31.524Z,100966.34
2024-03-05T01:13:58.793Z,100965.47
2024-03-05T01:16:27.568Z,100961.94
2024-03-05T01:18:56.661Z,100968.34
2024-03-05T01:21:23.255Z,100955.09
2024-03-05T01:23:49.994Z,100960.44
2024-03-05T01:26:16.726Z,100962.34
2024-03-05T01:28:43.303Z,100958.09
2024-03-05T01:31:10.198Z,100953.69
2024-03-05T01:33:37.352Z,100956.47
2024-03-05T01:36:04.696Z,100953.16
2024-03-05T01:38:31.466Z,100955.81
2024-03-05T01:40:58.131Z,100959.34
2024-03-05T01:43:24.993Z,100954.88
2024-03-05T01:45:52.074Z,100953.06
2024-03-05T01:48:19.475Z,100952.22
2024-03-05T01:50:46.131Z,100952.41
2024-03-05T01:53:16.531Z,100946.22
2024-03-05T01:55:43.616Z,100946.22
2024-03-05T01:58:10.375Z,100951.66
2024-03-05T02:00:38.000Z,100948.97
2024-03-05T02:03:06.191Z,100947.28
2024-03-05T02:05:34.080Z,100948.22
2024-03-05T02:08:03.145Z,100949.28
2024-03-05T02:10:29.975Z,100940.44
2024-03-05T02:12:56.604Z,100943.28
2024-03-05T02:15:23.188Z,100945.13
2024-03-05T02:17:51.440Z,100937.00
2024-03-05T02:20:18.493Z,100929.00
2024-03-05T02:22:45.889Z,100935.28
2024-03-05T02:25:13.306Z,100939.69
2024-03-05T02:27:41.606Z,100937.94
2024-03-05T02:30:12.315Z,100930.78
2024-03-05T02:32:42.181Z,100929.94
2024-03-05T02:35:12.539Z,100930.16
2024-03-05T02:37:40.026Z,100927.59
2024-03-05T02:40:11.302Z,100932.94
2024-03-05T02:42:38.395Z,100924.06
2024-03-05T02:45:06.270Z,100934.75
2024-03-05T02:47:33.306Z,100930.34
2024-03-05T02:50:00.685Z,100931.94
2024-03-05T02:52:29.598Z,100927.50
2024-03-05T02:54:56.297Z,100922.16
2024-03-05T02:57:22.874Z,100923.75
2024-03-05T02:59:49.510Z,100929.00
2024-03-05T03:02:16.197Z,100930.69
2024-03-05T03:04:42.801Z,100924.50
2024-03-05T03:07:09.440Z,100932.59
2024-03-05T03:09:36.503Z,100931.00
2024-03-05T03:12:03.327Z,100931.09
2024-03-05T03:14:29.916Z,100927.69
2024-03-05T03:16:58.549Z,100929.41
2024-03-05T03:19:25.267Z,100918.72
2024-03-05T03:21:52.551Z,100931.31
2024-03-05T03:24:19.269Z,100931.41
2024-03-05T03:26:46.268Z,100938.78
2024-03-05T03:29:13.069Z,100931.75
2024-03-05T03:31:47.429Z,100930.97
2024-03-05T03:34:17.463Z,100936.41
2024-03-05T03:36:44.785Z,100933.84
2024-03-05T03:39:24.869Z,100939.31
2024-03-05T03:41:56.263Z,100934.81
2024-03-05T03:44:23.598Z,100939.19
2024-03-05T03:46:53.649Z,100939.19
2024-03-05T03:49:24.996Z,100941.84
2024-03-05T03:51:53.241Z,100935.56
2024-03-05T03:54:19.909Z,100940.91
2024-03-05T03:56:47.119Z,100938.31
2024-03-05T03:59:16.709Z,100936.50
2024-03-05T04:01:49.700Z,100946.25
2024-03-05T04:04:16.918Z,100936.31
2024-03-05T04:06:43.940Z,100933.66
2024-03-05T04:09:10.648Z,100937.25
2024-03-05T04:11:37.643Z,100932.69
2024-03-05T04:14:04.896Z,100934.41
2024-03-05T04:16:32.220Z,100933.25
2024-03-05T04:18:59.172Z,100929.59
2024-03-05T04:21:26.823Z,100923.41
2024-03-05T04:23:53.968Z,100927.81
2024-03-05T04:26:28.367Z,100921.41
2024-03-05T04:29:00.832Z,100924.81
2024-03-05T04:31:37.581Z,100934.53
2024-03-05T04:34:08.736Z,100932.59
2024-03-05T04:36:38.285Z,100932.59
2024-03-05T04:39:05.201Z,100932.53
2024-03-05T04:41:31.879Z,100936.03
2024-03-05T04:43:58.511Z,100929.94
2024-03-05T04:46:26.087Z,100930.75
2024-03-05T04:48:52.792Z,100934.47
2024-03-05T04:51:19.688Z,100936.69
2024-03-05T04:53:46.262Z,100941.34
2024-03-05T04:56:13.570Z,100944.13
2024-03-05T04:58:40.376Z,100933.56
2024-03-05T05:01:07.057Z,100939.94
2024-03-05T05:03:33.768Z,100926.72
2024-03-05T05:06:01.392Z,100933.75
2024-03-05T05:08:28.036Z,100935.56
2024-03-05T05:10:54.751Z,100931.94
2024-03-05T05:13:21.682Z,100936.44
2024-03-05T05:15:48.954Z,100937.19
2024-03-05T05:18:15.544Z,100936.78
2024-03-05T05:20:42.500Z,100936.16
2024-03-05T05:23:09.413Z,100926.81
2024-03-05T05:25:36.154Z,100939.00
2024-03-05T05:28:02.842Z,100931.50
2024-03-05T05:30:29.437Z,100935.81
2024-03-05T05:32:56.222Z,100941.16
2024-03-05T05:35:23.033Z,100941.78
2024-03-05T05:37:49.615Z,100947.88
2024-03-05T05:40:20.810Z,100951.31
2024-03-05T05:42:49.741Z,100957.50
2024-03-05T05:45:16.866Z,100958.47
2024-03-05T05:47:50.608Z,100952.06
2024-03-05T05:50:21.110Z,100952.06
2024-03-05T05:52:49.554Z,100952.81
2024-03-05T05:55:20.685Z,100964.47
2024-03-05T05:57:51.020Z,100965.50
2024-03-05T06:00:25.939Z,100969.16
2024-03-05T06:02:54.239Z,100975.34
2024-03-05T06:05:24.526Z,100977.91
2024-03-05T06:07:51.311Z,100984.09
2024-03-05T06:10:20.998Z,100981.34
2024-03-05T06:12:47.685Z,100982.19
2024-03-05T06:15:14.391Z,100981.34
2024-03-05T06:17:41.645Z,100981.44
2024-03-05T06:20:11.621Z,100986.88
2024-03-05T06:22:41.885Z,100991.34
2024-03-05T06:25:09.553Z,100993.09
2024-03-05T06:27:39.748Z,100995.75
2024-03-05T06:30:14.402Z,100998.44
2024-03-05T06:32:44.770Z,101007.19
2024-03-05T06:35:12.290Z,100996.28
2024-03-05T06:37:45.004Z,101004.66
2024-03-05T06:40:12.946Z,101009.78
2024-03-05T06:42:43.123Z,101003.25
2024-03-05T06:45:10.124Z,101010.25
2024-03-05T06:47:40.525Z,101007.44
2024-03-05T06:50:08.782Z,101014.28
2024-03-05T06:52:54.262Z,101016.88
2024-03-05T06:55:39.495Z,101013.03
2024-03-05T06:58:06.058Z,101013.56
2024-03-05T07:00:32.673Z,101013.28
2024-03-05T07:02:59.282Z,101016.47
2024-03-05T07:05:25.907Z,101011.56
2024-03-05T07:07:52.567Z,101021.00
2024-03-05T07:10:22.582Z,101023.44
2024-03-05T07:12:52.145Z,101022.06
2024-03-05T07:15:18.850Z,101027.84
2024-03-05T07:17:45.497Z,101028.31
2024-03-05T07:20:23.978Z,101035.16
2024-03-05T07:22:52.443Z,101034.94
2024-03-05T07:25:19.319Z,101029.28
2024-03-05T07:27:48.040Z,101042.84
2024-03-05T07:30:18.490Z,101050.22
2024-03-05T07:32:49.446Z,101046.91
2024-03-05T07:35:18.450Z,101043.59
2024-03-05T07:37:49.259Z,101038.53
2024-03-05T07:40:22.034Z,101038.63
2024-03-05T07:42:49.919Z,101047.59
2024-03-05T07:45:16.868Z,101047.84
2024-03-05T07:47:44.482Z,101051.81
2024-03-05T07:50:13.365Z,101054.25
2024-03-05T07:52:40.919Z,101054.03
2024-03-05T07:55:12.352Z,101062.59
2024-03-05T07:57:41.600Z,101065.56
2024-03-05T08:00:13.517Z,101068.63
2024-03-05T08:02:43.788Z,101072.59
2024-03-05T08:05:10.729Z,101065.16
2024-03-05T08:07:37.876Z,101066.78
2024-03-05T08:10:09.036Z,101065.69
2024-03-05T08:12:36.841Z,101076.16
2024-03-05T08:15:04.419Z,101070.47
2024-03-05T08:17:37.050Z,101071.59
2024-03-05T08:20:05.013Z,101076.53
2024-03-05T08:22:32.285Z,101077.41
2024-03-05T08:24:58.993Z,101079.16
2024-03-05T08:27:26.953Z,101076.28
2024-03-05T08:29:53.555Z,101075.94
2024-03-05T08:32:20.196Z,101072.91
2024-03-05T08:34:46.972Z,101074.28
2024-03-05T08:37:16.877Z,101076.00
2024-03-05T08:39:43.595Z,101069.75
2024-03-05T08:42:10.483Z,101081.09
2024-03-05T08:44:37.288Z,101081.84
2024-03-05T08:47:04.271Z,101078.41
2024-03-05T08:49:30.870Z,101082.91
2024-03-05T08:51:59.662Z,101084.09
2024-03-05T08:54:27.087Z,101079.44
2024-03-05T08:56:53.604Z,101082.66
2024-03-05T08:59:20.524Z,101084.91
2024-03-05T09:01:47.361Z,101087.16
2024-03-05T09:04:14.017Z,101081.88
2024-03-05T09:06:41.817Z,101089.53
2024-03-05T09:09:08.570Z,101095.53
2024-03-05T09:11:36.421Z,101093.88
2024-03-05T09:14:03.994Z,101092.84
2024-03-05T09:16:31.591Z,101098.28
2024-03-05T09:18:58.802Z,101106.81
2024-03-05T09:21:25.335Z,101107.34
2024-03-05T09:23:51.989Z,101107.38
2024-03-05T09:26:18.621Z,101102.19
2024-03-05T09:28:45.337Z,101116.06
2024-03-05T09:31:12.362Z,101114.47
2024-03-05T09:33:39.952Z,101104.97
2024-03-05T09:36:09.634Z,101110.59
2024-03-05T09:38:36.311Z,101111.81
2024-03-05T09:41:03.408Z,101106.81
2024-03-05T09:43:31.167Z,101104.31
2024-03-05T09:46:06.285Z,101102.16
2024-03-05T09:48:34.632Z,101095.13
2024-03-05T09:51:01.624Z,101094.50
2024-03-05T09:53:29.141Z,101100.00
2024-03-05T09:55:55.887Z,101097.59
2024-03-05T09:58:40.531Z,101108.03
2024-03-05T10:01:09.099Z,101102.38
2024-03-05T10:03:37.241Z,101101.63
2024-03-05T10:06:06.194Z,101107.56
2024-03-05T10:08:32.843Z,101106.72
2024-03-05T10:11:06.085Z,101111.50
2024-03-05T10:13:37.197Z,101106.78
2024-03-05T10:16:20.526Z,101106.31
2024-03-05T10:18:48.367Z,101098.97
2024-03-05T10:21:22.886Z,101101.53
2024-03-05T10:23:58.712Z,101103.22
2024-03-05T10:26:28.907Z,101097.94
2024-03-05T10:28:58.067Z,101100.91
2024-03-05T10:31:26.533Z,101095.16
2024-03-05T10:33:57.574Z,101090.47
2024-03-05T10:36:29.604Z,101093.78
2024-03-05T10:38:56.812Z,101089.84
2024-03-05T10:41:31.775Z,101088.72
2024-03-05T10:44:02.582Z,101093.69
2024-03-05T10:46:33.574Z,101094.69
2024-03-05T10:49:01.745Z,101093.56
2024-03-05T10:51:32.296Z,101101.25
2024-03-05T10:54:02.756Z,101090.47
2024-03-05T10:56:37.141Z,101100.69
2024-03-05T10:59:42.099Z,101092.13
2024-03-05T11:02:13.235Z,101101.22
2024-03-05T11:04:43.756Z,101093.13
2024-03-05T11:07:12.351Z,101092.28
2024-03-05T11:09:39.980Z,101093.00
2024-03-05T11:12:17.751Z,101094.69
2024-03-05T11:14:47.650Z,101092.72
2024-03-05T11:17:17.040Z,101098.41
2024-03-05T11:19:44.371Z,101095.53
2024-03-05T11:22:26.080Z,101093.69
2024-03-05T11:24:56.762Z,101093.56
2024-03-05T11:27:24.615Z,101095.13
2024-03-05T11:30:20.538Z,101093.75
2024-03-05T11:32:52.168Z,101084.28
2024-03-05T11:35:21.731Z,101085.72
2024-03-05T11:37:56.376Z,101087.69
2024-03-05T11:40:34.126Z,101084.28
2024-03-05T11:43:01.678Z,101084.28
2024-03-05T11:45:45.011Z,101082.44
2024-03-05T11:48:16.655Z,101085.00
2024-03-05T11:50:44.111Z,101081.03
2024-03-05T11:53:11.415Z,101090.56
2024-03-05T11:55:38.165Z,101084.47
2024-03-05T11:58:05.680Z,101072.97
2024-03-05T12:00:32.278Z,101073.53
2024-03-05T12:02:59.092Z,101069.97
2024-03-05T12:05:26.878Z,101069.00
2024-03-05T12:08:03.491Z,101071.28
2024-03-05T12:10:32.854Z,101071.72
2024-03-05T12:13:02.942Z,101075.00
2024-03-05T12:15:30.612Z,101068.75
2024-03-05T12:17:57.844Z,101068.94
2024-03-05T12:20:24.690Z,101063.28
2024-03-05T12:22:51.791Z,101053.19
2024-03-05T12:25:20.419Z,101047.81
2024-03-05T12:27:48.688Z,101047.69
2024-03-05T12:30:16.811Z,101043.47
2024-03-05T12:32:45.533Z,101045.47
2024-03-05T12:35:15.626Z,101042.59
2024-03-05T12:37:42.460Z,101037.06
2024-03-05T12:40:15.534Z,101037.63
2024-03-05T12:42:42.725Z,101042.47
2024-03-05T12:45:19.924Z,101045.16
2024-03-05T12:47:56.242Z,101037.91
2024-03-05T12:50:23.087Z,101034.81
2024-03-05T12:53:00.477Z,101034.38
2024-03-05T12:55:28.908Z,101031.25
2024-03-05T12:58:12.589Z,101029.84
2024-03-05T13:00:40.149Z,101029.13
2024-03-05T13:03:08.328Z,101033.50
2024-03-05T13:05:35.996Z,101031.53
2024-03-05T13:08:03.176Z,101020.34
2024-03-05T13:10:30.198Z,101032.94
2024-03-05T13:12:56.911Z,101026.84
2024-03-05T13:15:23.627Z,101029.94
2024-03-05T13:17:53.090Z,101026.25
2024-03-05T13:20:20.235Z,101023.53
2024-03-05T13:22:47.897Z,101023.66
2024-03-05T13:25:17.202Z,101022.50
2024-03-05T13:27:45.329Z,101021.34
2024-03-05T13:30:18.163Z,101022.91
2024-03-05T13:32:49.242Z,101019.09
2024-03-05T13:35:17.861Z,101014.09
2024-03-05T13:37:45.907Z,101021.19
2024-03-05T13:40:13.343Z,101021.47
2024-03-05T13:42:40.620Z,101024.75
2024-03-05T13:45:13.644Z,101024.34
2024-03-05T13:47:40.718Z,101013.13
2024-03-05T13:50:11.560Z,101013.44
2024-03-05T13:52:41.294Z,101009.19
2024-03-05T13:55:12.002Z,101004.91
2024-03-05T13:57:39.094Z,101009.19
2024-03-05T14:00:10.373Z,101006.09
2024-03-05T14:02:37.207Z,101007.38
2024-03-05T14:05:04.575Z,100998.84
2024-03-05T14:07:31.953Z,101000.44
2024-03-05T14:09:58.903Z,101001.00
2024-03-05T14:12:27.553Z,100998.88
2024-03-05T14:14:54.209Z,100993.06
2024-03-05T14:17:24.483Z,100990.22
2024-03-05T14:19:51.139Z,100990.06
2024-03-05T14:22:18.548Z,100997.13
2024-03-05T14:24:45.102Z,101001.28
2024-03-05T14:27:13.462Z,100997.41
2024-03-05T14:29:41.470Z,100989.91
2024-03-05T14:32:08.816Z,100989.34
2024-03-05T14:34:35.898Z,100989.06
2024-03-05T14:37:04.771Z,100994.72
2024-03-05T14:39:31.553Z,100995.84
2024-03-05T14:41:58.180Z,100998.66
2024-03-05T14:44:24.762Z,100998.09
2024-03-05T14:46:51.385Z,100993.56
2024-03-05T14:49:18.055Z,100989.28
2024-03-05T14:51:44.989Z,100989.28
2024-03-05T14:54:11.692Z,100977.66
2024-03-05T14:56:38.360Z,100975.69
2024-03-05T14:59:05.846Z,100966.34
2024-03-05T15:01:33.695Z,100962.13
2024-03-05T15:04:01.707Z,100967.78
2024-03-05T15:06:28.451Z,100974.44
2024-03-05T15:08:55.723Z,100980.28
2024-03-05T15:11:23.578Z,100977.28
2024-03-05T15:13:51.480Z,100976.16
2024-03-05T15:16:19.905Z,100967.38
2024-03-05T15:18:47.759Z,100967.78
2024-03-05T15:21:17.406Z,100970.06
2024-03-05T15:23:44.141Z,100974.03
2024-03-05T15:26:11.797Z,100970.75
2024-03-05T15:28:38.660Z,100961.94
2024-03-05T15:31:10.560Z,100966.63
2024-03-05T15:33:43.398Z,100964.91
2024-03-05T15:36:09.977Z,100964.34
2024-03-05T15:38:36.844Z,100964.00
2024-03-05T15:41:05.339Z,100967.06
2024-03-05T15:43:35.086Z,100966.91
2024-03-05T15:46:01.841Z,100961.59
2024-03-05T15:48:31.649Z,100951.38
2024-03-05T15:50:59.373Z,100954.06
2024-03-05T15:53:26.215Z,100948.25
2024-03-05T15:56:02.729Z,100945.16
2024-03-05T15:58:44.905Z,100951.66
2024-03-05T16:01:12.136Z,100952.97
2024-03-05T16:03:52.616Z,100959.03
2024-03-05T16:06:29.272Z,100955.34
2024-03-05T16:08:56.016Z,100954.53
2024-03-05T16:11:25.920Z,100950.03
2024-03-05T16:13:52.927Z,100949.56
2024-03-05T16:16:21.230Z,100948.94
2024-03-05T16:18:47.984Z,100951.97
2024-03-05T16:21:14.514Z,100956.69
2024-03-05T16:23:41.194Z,100956.50
2024-03-05T16:26:07.834Z,100961.53
2024-03-05T16:28:38.790Z,100969.00
2024-03-05T16:31:06.220Z,100956.94
2024-03-05T16:33:33.945Z,100954.91
2024-03-05T16:36:00.667Z,100954.31
2024-03-05T16:38:27.513Z,100963.00
2024-03-05T16:40:54.338Z,100960.56
2024-03-05T16:43:21.097Z,100958.00
2024-03-05T16:45:48.726Z,100960.81
2024-03-05T16:48:15.571Z,100963.13
2024-03-05T16:50:42.232Z,100964.38
2024-03-05T16:53:10.482Z,100961.22
2024-03-05T16:55:37.873Z,100965.00
2024-03-05T16:58:11.205Z,100960.63
2024-03-05T17:00:52.564Z,100958.31
2024-03-05T17:03:21.846Z,100961.13
2024-03-05T17:05:51.937Z,100963.91
2024-03-05T17:08:21.660Z,100954.91
2024-03-05T17:10:49.512Z,100965.75
2024-03-05T17:13:20.707Z,100963.47
2024-03-05T17:15:54.640Z,100962.47
2024-03-05T17:18:24.709Z,100963.56
2024-03-05T17:20:52.088Z,100951.38
2024-03-05T17:23:25.701Z,100951.16
2024-03-05T17:25:53.727Z,100956.38
2024-03-05T17:28:20.482Z,100954.56
2024-03-05T17:30:49.596Z,100952.00
2024-03-05T17:33:17.281Z,100946.00
2024-03-05T17:35:43.986Z,100938.06
2024-03-05T17:38:14.558Z,100937.22
2024-03-05T17:40:41.798Z,100931.00
2024-03-05T17:43:08.849Z,100919.16
2024-03-05T17:45:35.554Z,100919.88
2024-03-05T17:48:08.141Z,100909.53
2024-03-05T17:50:38.029Z,100914.28
2024-03-05T17:53:06.820Z,100907.47
2024-03-05T17:55:35.873Z,100909.31
2024-03-05T17:58:05.175Z,100893.31
2024-03-05T18:00:42.681Z,100901.38
2024-03-05T18:03:12.071Z,100901.63
2024-03-05T18:05:39.527Z,100900.91
2024-03-05T18:08:06.390Z,100900.91
2024-03-05T18:10:35.851Z,100903.59
2024-03-05T18:13:05.928Z,100903.47
2024-03-05T18:15:33.003Z,100896.72
2024-03-05T18:17:59.802Z,100906.13
2024-03-05T18:20:30.053Z,100907.56
2024-03-05T18:23:00.464Z,100915.50
2024-03-05T18:25:28.296Z,100916.34
2024-03-05T18:27:57.899Z,100916.25
2024-03-05T18:30:36.343Z,100913.28
2024-03-05T18:33:07.394Z,100914.28
2024-03-05T18:35:35.104Z,100917.81
2024-03-05T18:38:04.652Z,100913.28
2024-03-05T18:40:34.220Z,100909.63
2024-03-05T18:43:00.867Z,100912.31
2024-03-05T18:45:33.103Z,100909.88
2024-03-05T18:48:05.971Z,100923.56
2024-03-05T18:50:36.904Z,100913.19
2024-03-05T18:53:06.932Z,100914.28
2024-03-05T18:55:37.202Z,100924.31
2024-03-05T18:58:07.654Z,100921.63
2024-03-05T19:00:34.673Z,100928.72
2024-03-05T19:03:01.992Z,100923.34
2024-03-05T19:05:28.736Z,100926.88
2024-03-05T19:07:55.426Z,100932.22
2024-03-05T19:10:22.040Z,100929.56
2024-03-05T19:12:48.981Z,100932.59
2024-03-05T19:15:18.770Z,100924.75
2024-03-05T19:17:48.833Z,100931.13
2024-03-05T19:20:16.250Z,100931.84
2024-03-05T19:22:43.196Z,100918.09
2024-03-05T19:25:13.590Z,100912.25
2024-03-05T19:27:42.299Z,100907.97
2024-03-05T19:30:11.784Z,100899.19
2024-03-05T19:32:40.270Z,100884.81
2024-03-05T19:35:11.297Z,100880.78
2024-03-05T19:37:41.518Z,100875.69
2024-03-05T19:40:09.254Z,100876.63
2024-03-05T19:42:35.944Z,100878.75
2024-03-05T19:45:02.543Z,100893.63
2024-03-05T19:47:30.403Z,100900.94
2024-03-05T19:49:57.166Z,100908.03
2024-03-05T19:52:24.435Z,100889.97
2024-03-05T19:54:51.206Z,100880.94
2024-03-05T19:57:19.031Z,100886.06
2024-03-05T19:59:45.634Z,100868.53
2024-03-05T20:02:12.244Z,100896.81
2024-03-05T20:04:39.081Z,100906.94
2024-03-05T20:07:10.005Z,100915.53
2024-03-05T20:09:45.393Z,100904.25
2024-03-05T20:12:12.965Z,100901.47
2024-03-05T20:14:39.601Z,100891.16
2024-03-05T20:17:08.581Z,100927.34
2024-03-05T20:19:40.362Z,100916.88
2024-03-05T20:22:41.826Z,100886.34
2024-03-05T20:25:23.454Z,100884.63
2024-03-05T20:28:13.266Z,100899.22
2024-03-05T20:31:02.233Z,100918.59
2024-03-05T20:33:43.728Z,100912.13
2024-03-05T20:36:23.751Z,100928.47
2024-03-05T20:38:58.832Z,100941.97
2024-03-05T20:41:36.670Z,100957.31
2024-03-05T20:44:11.394Z,100950.53
2024-03-05T20:46:40.612Z,100942.88
2024-03-05T20:49:10.401Z,100961.28
2024-03-05T20:51:37.933Z,100956.81
2024-03-05T20:54:10.400Z,100962.22
2024-03-05T20:56:36.980Z,100960.56
2024-03-05T20:59:05.834Z,100954.81
2024-03-05T21:01:32.945Z,100952.25
2024-03-05T21:04:01.500Z,100957.75
2024-03-05T21:06:28.195Z,100957.03
2024-03-05T21:08:54.781Z,100945.56
2024-03-05T21:11:22.265Z,100947.00
2024-03-05T21:13:48.832Z,100945.97
2024-03-05T21:16:15.488Z,100942.59
2024-03-05T21:18:42.124Z,100934.53
2024-03-05T21:21:14.800Z,100940.84
2024-03-05T21:23:42.823Z,100947.94
2024-03-05T21:26:20.767Z,100957.78
2024-03-05T21:28:56.088Z,100955.34
2024-03-05T21:31:22.785Z,100961.91
2024-03-05T21:33:50.116Z,100975.41
2024-03-05T21:36:16.811Z,100980.16
2024-03-05T21:38:43.364Z,100990.28
2024-03-05T21:41:13.108Z,100989.28
2024-03-05T21:43:41.082Z,100991.13
2024-03-05T21:46:09.180Z,101001.00
2024-03-05T21:48:35.770Z,101004.72
2024-03-05T21:51:06.893Z,100996.81
2024-03-05T21:53:39.014Z,101002.28
2024-03-05T21:56:06.140Z,100996.69
2024-03-05T21:58:32.756Z,100997.56
2024-03-05T22:00:59.350Z,100993.91
2024-03-05T22:03:25.917Z,101009.03
2024-03-05T22:05:52.515Z,101010.72
2024-03-05T22:08:19.390Z,101000.53
2024-03-05T22:10:46.592Z,101001.03
2024-03-05T22:13:13.273Z,101000.81
2024-03-05T22:15:39.829Z,101009.78
2024-03-05T22:18:06.720Z,101005.44
2024-03-05T22:20:33.335Z,101012.84
2024-03-05T22:23:00.636Z,101022.56
2024-03-05T22:25:27.307Z,101022.34
2024-03-05T22:27:53.854Z,101016.00
2024-03-05T22:30:20.730Z,101024.03
2024-03-05T22:32:47.620Z,101017.72
2024-03-05T22:35:14.696Z,101020.78
2024-03-05T22:37:41.457Z,101020.56
2024-03-05T22:40:09.695Z,101019.50
2024-03-05T22:42:36.223Z,101023.78
2024-03-05T22:45:04.076Z,101028.16
2024-03-05T22:47:30.776Z,101028.16
2024-03-05T22:49:58.136Z,101029.03
2024-03-05T22:52:24.841Z,101029.63
2024-03-05T22:54:51.533Z,101028.88
2024-03-05T22:57:18.209Z,101039.75
2024-03-05T22:59:44.749Z,101041.56
2024-03-05T23:02:11.807Z,101030.84
2024-03-05T23:04:38.559Z,101029.97
2024-03-05T23:07:05.900Z,101029.97
2024-03-05T23:09:32.485Z,101034.50
2024-03-05T23:11:59.212Z,101046.19
2024-03-05T23:14:25.822Z,101049.09
2024-03-05T23:16:52.562Z,101050.81
2024-03-05T23:19:19.143Z,101048.13
2024-03-05T23:21:45.755Z,101054.47
2024-03-05T23:24:12.336Z,101069.03
2024-03-05T23:26:38.877Z,101068.28
2024-03-05T23:29:05.452Z,101072.91
2024-03-05T23:31:32.174Z,101075.25
2024-03-05T23:33:58.808Z,101076.09
2024-03-05T23:36:25.380Z,101073.41
2024-03-05T23:38:52.096Z,101071.72
2024-03-05T23:41:28.600Z,101066.34
2024-03-05T23:43:58.456Z,101071.94
2024-03-05T23:46:25.052Z,101067.66
2024-03-05T23:48:51.667Z,101067.56
2024-03-05T23:51:18.697Z,101075.94
2024-03-05T23:53:45.389Z,101075.22
2024-03-05T23:56:12.217Z,101072.53
2024-03-05T23:58:41.880Z,101074.22
